Time;durP1;ratioP1;P1;durP2;ratioP2;P2;SDS_P1;SDS_P2;PMS_P1;PMS_P2;Temp;Humidity;BMP_temperature;BMP_pressure;BME280_temperature;BME280_humidity;BME280_pressure;Samples;Min_cycle;Max_cycle;Signal;HPM_P1;HPM_P2
2022/11/25 00:01:07;;;;;;;85.70;65.45;;;;;;;;;;4995531;28;20076;-77
2022/11/25 00:03:34;;;;;;;61.58;46.38;;;;;;;;;;4995895;28;20022;-76
2022/11/25 00:06:10;;;;;;;256.42;136.32;;;;;;;;;;4977595;28;20480;-76
2022/11/25 00:08:36;;;;;;;165.88;86.28;;;;;;;;;;4995311;28;20026;-76
2022/11/25 00:11:03;;;;;;;143.95;77.57;;;;;;;;;;4995208;28;20023;-77
2022/11/25 00:13:29;;;;;;;104.93;60.03;;;;;;;;;;4995214;28;20396;-76
2022/11/25 00:15:55;;;;;;;114.78;65.70;;;;;;;;;;4995272;28;20023;-76
2022/11/25 00:18:21;;;;;;;101.43;56.28;;;;;;;;;;4995225;28;20034;-76
2022/11/25 00:20:47;;;;;;;64.00;41.03;;;;;;;;;;4995060;28;20384;-78
2022/11/25 00:23:13;;;;;;;42.60;28.23;;;;;;;;;;4995144;28;20491;-78
2022/11/25 00:25:39;;;;;;;40.75;26.55;;;;;;;;;;4995045;28;20065;-77
2022/11/25 00:28:05;;;;;;;42.75;28.05;;;;;;;;;;4994878;28;20085;-77
2022/11/25 00:30:31;;;;;;;46.80;27.92;;;;;;;;;;4994917;28;20026;-78
2022/11/25 00:32:57;;;;;;;40.50;28.25;;;;;;;;;;4994813;28;20041;-77
2022/11/25 00:35:23;;;;;;;40.83;29.00;;;;;;;;;;4994502;28;20027;-77
2022/11/25 00:37:49;;;;;;;46.58;30.92;;;;;;;;;;4994928;28;20027;-76
2022/11/25 00:40:16;;;;;;;40.85;28.45;;;;;;;;;;4994568;28;20025;-75
2022/11/25 00:45:26;;;;;;;37.80;25.95;;;;;;;;;;4994955;28;20034;-76
2022/11/25 00:47:53;;;;;;;76.88;46.90;;;;;;;;;;4993777;28;20034;-72
2022/11/25 00:50:19;;;;;;;76.97;45.67;;;;;;;;;;4994402;28;20171;-76
2022/11/25 00:52:45;;;;;;;231.27;117.25;;;;;;;;;;4994456;28;20034;-76
2022/11/25 00:55:11;;;;;;;112.75;64.20;;;;;;;;;;4994406;28;20029;-71
2022/11/25 00:57:37;;;;;;;98.53;56.35;;;;;;;;;;4994461;28;20150;-72
2022/11/25 01:00:04;;;;;;;84.88;49.67;;;;;;;;;;4994585;28;20027;-76
2022/11/25 01:02:30;;;;;;;95.32;57.97;;;;;;;;;;4994117;28;20030;-75
2022/11/25 01:04:56;;;;;;;109.60;69.70;;;;;;;;;;4976819;28;20124;-76
2022/11/25 01:07:22;;;;;;;107.20;69.70;;;;;;;;;;4994280;28;20392;-76
2022/11/25 01:09:48;;;;;;;101.35;67.65;;;;;;;;;;4994241;28;20526;-76
2022/11/25 01:12:14;;;;;;;99.97;65.20;;;;;;;;;;4994034;28;20049;-75
2022/11/25 01:14:40;;;;;;;79.65;49.50;;;;;;;;;;4994244;28;20018;-76
2022/11/25 01:17:07;;;;;;;88.50;54.80;;;;;;;;;;4993943;28;20472;-76
2022/11/25 01:19:33;;;;;;;59.15;37.95;;;;;;;;;;4993922;28;20495;-77
2022/11/25 01:21:59;;;;;;;31.67;20.70;;;;;;;;;;4994106;28;20018;-77
2022/11/25 01:24:25;;;;;;;24.48;16.52;;;;;;;;;;4994235;28;20023;-76
2022/11/25 01:26:53;;;;;;;16.70;12.02;;;;;;;;;;4993973;28;20077;-76
2022/11/25 01:29:19;;;;;;;21.45;12.82;;;;;;;;;;4994076;28;20026;-77
2022/11/25 01:31:46;;;;;;;20.38;11.15;;;;;;;;;;4993806;28;20407;-76
2022/11/25 01:34:20;;;;;;;14.93;9.60;;;;;;;;;;4993718;28;20022;-76
2022/11/25 01:36:46;;;;;;;12.32;8.35;;;;;;;;;;4993667;28;20034;-77
2022/11/25 01:39:17;;;;;;;13.73;8.88;;;;;;;;;;4993792;28;20029;-76
2022/11/25 01:41:43;;;;;;;13.60;9.07;;;;;;;;;;4993692;28;20065;-76
2022/11/25 01:44:09;;;;;;;14.32;9.50;;;;;;;;;;4993751;28;20022;-78
2022/11/25 01:46:41;;;;;;;14.77;8.98;;;;;;;;;;4993726;28;20053;-76
2022/11/25 01:49:08;;;;;;;19.65;11.25;;;;;;;;;;4993628;28;20033;-76
2022/11/25 01:51:47;;;;;;;16.30;9.43;;;;;;;;;;4993379;28;20042;-76
2022/11/25 01:54:15;;;;;;;12.98;8.32;;;;;;;;;;4994047;28;20372;-76
2022/11/25 01:56:49;;;;;;;12.40;8.95;;;;;;;;;;4993646;28;20412;-76
2022/11/25 01:59:15;;;;;;;12.88;8.38;;;;;;;;;;4978470;28;20026;-71
2022/11/25 02:01:41;;;;;;;13.82;9.05;;;;;;;;;;4993523;28;20019;-76
2022/11/25 02:04:09;;;;;;;15.25;9.57;;;;;;;;;;4993366;28;20496;-71
2022/11/25 02:06:37;;;;;;;15.73;10.40;;;;;;;;;;4993519;28;20473;-71
2022/11/25 02:09:04;;;;;;;16.20;9.45;;;;;;;;;;4993497;28;20078;-78
2022/11/25 02:11:31;;;;;;;16.33;9.82;;;;;;;;;;4993731;28;20138;-75
2022/11/25 02:13:58;;;;;;;15.60;10.70;;;;;;;;;;4993202;28;20034;-76
2022/11/25 02:16:24;;;;;;;15.90;9.93;;;;;;;;;;4993235;28;20556;-76
2022/11/25 02:18:52;;;;;;;12.57;9.25;;;;;;;;;;4993274;28;20051;-76
2022/11/25 02:21:21;;;;;;;16.45;9.85;;;;;;;;;;4993208;28;20031;-75
2022/11/25 02:23:57;;;;;;;14.65;9.82;;;;;;;;;;4993145;28;20420;-72
2022/11/25 02:26:24;;;;;;;16.80;10.50;;;;;;;;;;4993179;28;20077;-76
2022/11/25 02:28:50;;;;;;;15.90;10.35;;;;;;;;;;4993072;28;20021;-71
2022/11/25 02:31:22;;;;;;;13.27;9.32;;;;;;;;;;4993268;28;20065;-75
2022/11/25 02:33:48;;;;;;;16.20;10.02;;;;;;;;;;4993235;28;20461;-75
2022/11/25 02:36:17;;;;;;;15.70;9.85;;;;;;;;;;4993052;28;20033;-75
2022/11/25 02:38:45;;;;;;;13.38;10.15;;;;;;;;;;4993123;28;20015;-76
2022/11/25 02:41:17;;;;;;;14.30;10.23;;;;;;;;;;4993105;28;20469;-76
2022/11/25 02:43:44;;;;;;;15.25;8.95;;;;;;;;;;4993148;28;20026;-76
2022/11/25 02:46:18;;;;;;;14.02;8.63;;;;;;;;;;4993236;28;20101;-75
2022/11/25 02:48:44;;;;;;;12.73;8.98;;;;;;;;;;4993070;28;20105;-76
2022/11/25 02:51:12;;;;;;;15.75;9.68;;;;;;;;;;4993288;28;20030;-74
2022/11/25 02:53:38;;;;;;;12.70;9.13;;;;;;;;;;4993011;28;20072;-75
2022/11/25 02:56:04;;;;;;;12.95;9.50;;;;;;;;;;4992942;28;20018;-75
2022/11/25 02:58:30;;;;;;;15.02;9.82;;;;;;;;;;4992929;28;20030;-77
2022/11/25 03:00:57;;;;;;;17.17;10.05;;;;;;;;;;4992867;28;20014;-79
2022/11/25 03:03:23;;;;;;;15.25;9.85;;;;;;;;;;4993173;28;20034;-76
2022/11/25 03:05:49;;;;;;;17.13;10.38;;;;;;;;;;4992837;28;20022;-76
2022/11/25 03:08:15;;;;;;;16.75;10.35;;;;;;;;;;4993040;28;20081;-75
2022/11/25 03:10:41;;;;;;;14.32;9.10;;;;;;;;;;4992898;28;20085;-75
2022/11/25 03:13:08;;;;;;;12.93;8.90;;;;;;;;;;4996537;28;20072;-75
2022/11/25 03:15:34;;;;;;;15.15;9.38;;;;;;;;;;4996658;28;20018;-75
2022/11/25 03:18:01;;;;;;;14.70;9.88;;;;;;;;;;4996378;28;20046;-76
2022/11/25 03:20:27;;;;;;;22.75;11.30;;;;;;;;;;4996416;28;20408;-76
2022/11/25 03:22:53;;;;;;;16.42;11.13;;;;;;;;;;4996407;28;20419;-76
2022/11/25 03:25:19;;;;;;;15.00;11.05;;;;;;;;;;4996640;28;20058;-72
2022/11/25 03:27:45;;;;;;;23.30;14.73;;;;;;;;;;4996209;28;20102;-75
2022/11/25 03:30:14;;;;;;;17.52;12.35;;;;;;;;;;4996023;28;20054;-76
2022/11/25 03:32:40;;;;;;;25.00;14.77;;;;;;;;;;4995961;28;20499;-76
2022/11/25 03:35:06;;;;;;;18.02;13.02;;;;;;;;;;4996063;28;20153;-78
2022/11/25 03:37:32;;;;;;;17.08;11.27;;;;;;;;;;4995898;28;20033;-75
2022/11/25 03:39:58;;;;;;;29.30;16.63;;;;;;;;;;4995858;28;20019;-76
2022/11/25 03:42:24;;;;;;;22.35;13.32;;;;;;;;;;4995808;28;20034;-76
2022/11/25 03:44:50;;;;;;;23.88;14.68;;;;;;;;;;4978252;28;20042;-76
2022/11/25 03:47:16;;;;;;;26.85;16.17;;;;;;;;;;4995790;28;20038;-76
2022/11/25 03:49:43;;;;;;;29.52;15.30;;;;;;;;;;4995792;28;20073;-76
2022/11/25 03:52:09;;;;;;;26.92;16.63;;;;;;;;;;4995464;28;20374;-76
2022/11/25 03:54:35;;;;;;;36.60;19.63;;;;;;;;;;4995717;28;20444;-77
2022/11/25 03:57:01;;;;;;;53.85;29.85;;;;;;;;;;4995510;28;20022;-76
2022/11/25 03:59:27;;;;;;;37.28;21.55;;;;;;;;;;4995648;28;20029;-76
2022/11/25 04:01:53;;;;;;;27.23;17.33;;;;;;;;;;4995593;28;20073;-78
2022/11/25 04:04:19;;;;;;;17.38;12.90;;;;;;;;;;4995542;28;20037;-76
2022/11/25 04:06:45;;;;;;;24.52;15.25;;;;;;;;;;4995407;28;20038;-76
2022/11/25 04:09:11;;;;;;;28.92;17.13;;;;;;;;;;4995282;28;20031;-76
2022/11/25 04:14:21;;;;;;;21.98;13.95;;;;;;;;;;4995267;28;20046;-76
2022/11/25 04:16:47;;;;;;;23.15;14.85;;;;;;;;;;4995143;28;20042;-76
2022/11/25 04:19:13;;;;;;;24.63;14.27;;;;;;;;;;4995325;28;20026;-77
2022/11/25 04:21:39;;;;;;;21.30;13.23;;;;;;;;;;4977610;28;20118;-75
2022/11/25 04:24:06;;;;;;;26.13;15.70;;;;;;;;;;4995049;28;20018;-76
2022/11/25 04:26:32;;;;;;;18.95;12.45;;;;;;;;;;4994926;28;20026;-76
2022/11/25 04:28:58;;;;;;;15.57;10.43;;;;;;;;;;4995168;28;20023;-76
2022/11/25 04:31:24;;;;;;;17.17;10.35;;;;;;;;;;4994825;28;20401;-77
2022/11/25 04:33:50;;;;;;;16.98;10.07;;;;;;;;;;4995060;28;20019;-78
2022/11/25 04:36:16;;;;;;;18.60;11.50;;;;;;;;;;4994901;28;20384;-73
2022/11/25 04:38:42;;;;;;;23.80;13.85;;;;;;;;;;4994730;28;20036;-76
2022/11/25 04:41:08;;;;;;;22.25;13.93;;;;;;;;;;4994808;28;20480;-76
2022/11/25 04:43:34;;;;;;;26.20;16.05;;;;;;;;;;4994728;28;20030;-74
2022/11/25 04:46:01;;;;;;;23.30;14.50;;;;;;;;;;4995075;28;20484;-76
2022/11/25 04:48:27;;;;;;;24.02;13.18;;;;;;;;;;4994607;28;20041;-76
2022/11/25 04:50:53;;;;;;;18.58;11.35;;;;;;;;;;4994796;28;20018;-76
2022/11/25 04:53:20;;;;;;;18.48;10.35;;;;;;;;;;4994664;28;20036;-76
2022/11/25 04:55:46;;;;;;;18.48;11.60;;;;;;;;;;4994270;28;20018;-76
2022/11/25 04:58:12;;;;;;;16.10;10.85;;;;;;;;;;4994664;28;20038;-72
2022/11/25 05:00:38;;;;;;;19.35;9.90;;;;;;;;;;4994449;28;20499;-76
2022/11/25 05:03:04;;;;;;;16.73;10.18;;;;;;;;;;4994491;28;20038;-76
2022/11/25 05:05:30;;;;;;;15.35;9.73;;;;;;;;;;4994336;28;20072;-74
2022/11/25 05:07:56;;;;;;;22.55;14.35;;;;;;;;;;4994450;28;20490;-76
2022/11/25 05:10:22;;;;;;;26.35;16.02;;;;;;;;;;4994392;28;20026;-76
2022/11/25 05:12:48;;;;;;;24.17;15.98;;;;;;;;;;4994113;28;20050;-76
2022/11/25 05:15:14;;;;;;;21.65;14.52;;;;;;;;;;4994362;28;20041;-76
2022/11/25 05:17:40;;;;;;;19.40;13.48;;;;;;;;;;4993906;28;20051;-75
2022/11/25 05:20:07;;;;;;;20.92;12.95;;;;;;;;;;4994337;28;20031;-73
2022/11/25 05:22:34;;;;;;;21.25;14.48;;;;;;;;;;4994151;28;20468;-77
2022/11/25 05:25:00;;;;;;;25.33;16.80;;;;;;;;;;4994078;28;20077;-76
2022/11/25 05:27:26;;;;;;;24.15;16.60;;;;;;;;;;4994547;28;20026;-76
2022/11/25 05:29:52;;;;;;;25.45;17.33;;;;;;;;;;4994003;28;20060;-76
2022/11/25 05:32:18;;;;;;;31.92;19.90;;;;;;;;;;4993955;28;20030;-77
2022/11/25 05:34:44;;;;;;;29.48;18.77;;;;;;;;;;4993700;28;20030;-76
2022/11/25 05:37:12;;;;;;;36.78;23.15;;;;;;;;;;4994047;28;20473;-76
2022/11/25 05:39:38;;;;;;;34.63;23.95;;;;;;;;;;4993898;28;20034;-74
2022/11/25 05:42:04;;;;;;;33.63;22.98;;;;;;;;;;4993598;28;20033;-76
2022/11/25 05:44:31;;;;;;;27.33;20.55;;;;;;;;;;4993829;28;20030;-75
2022/11/25 05:46:57;;;;;;;31.42;19.88;;;;;;;;;;4993697;28;20038;-76
2022/11/25 05:49:23;;;;;;;31.05;18.52;;;;;;;;;;4993949;28;20030;-75
2022/11/25 05:51:49;;;;;;;30.70;18.77;;;;;;;;;;4993188;28;20026;-76
2022/11/25 05:54:15;;;;;;;28.38;19.73;;;;;;;;;;4993853;28;20435;-78
2022/11/25 05:56:41;;;;;;;25.52;18.02;;;;;;;;;;4993478;28;20460;-77
2022/11/25 05:59:07;;;;;;;30.33;19.77;;;;;;;;;;4993426;28;20034;-76
2022/11/25 06:01:33;;;;;;;30.38;19.80;;;;;;;;;;4993565;28;20024;-75
2022/11/25 06:04:00;;;;;;;32.65;20.83;;;;;;;;;;4993462;28;20045;-76
2022/11/25 06:06:27;;;;;;;30.38;21.05;;;;;;;;;;4993563;28;20485;-76
2022/11/25 06:08:53;;;;;;;31.67;20.73;;;;;;;;;;4993593;28;20030;-76
2022/11/25 06:11:19;;;;;;;31.55;18.30;;;;;;;;;;4993230;28;20101;-73
2022/11/25 06:13:45;;;;;;;35.60;20.20;;;;;;;;;;4993359;28;20031;-77
2022/11/25 06:16:16;;;;;;;34.70;23.15;;;;;;;;;;4993539;28;20114;-74
2022/11/25 06:18:42;;;;;;;35.42;22.42;;;;;;;;;;4993326;28;20100;-76
2022/11/25 06:21:09;;;;;;;39.45;24.95;;;;;;;;;;4993168;28;20019;-76
2022/11/25 06:23:36;;;;;;;46.03;29.05;;;;;;;;;;4993162;28;20381;-75
2022/11/25 06:26:03;;;;;;;45.85;28.55;;;;;;;;;;4993149;28;20023;-76
2022/11/25 06:28:29;;;;;;;46.92;28.65;;;;;;;;;;4992979;28;20098;-76
2022/11/25 06:30:55;;;;;;;49.72;30.58;;;;;;;;;;4993106;28;20022;-76
2022/11/25 06:33:21;;;;;;;44.67;28.48;;;;;;;;;;4993174;28;20580;-76
2022/11/25 06:35:47;;;;;;;40.20;25.50;;;;;;;;;;4993038;28;20027;-76
2022/11/25 06:38:13;;;;;;;43.05;28.30;;;;;;;;;;4992978;28;20459;-76
2022/11/25 06:40:39;;;;;;;41.00;28.48;;;;;;;;;;4993133;28;20011;-76
2022/11/25 06:43:05;;;;;;;47.45;32.38;;;;;;;;;;4992996;28;20019;-75
2022/11/25 06:45:32;;;;;;;73.40;39.47;;;;;;;;;;4993468;28;20031;-76
2022/11/25 06:47:58;;;;;;;77.65;46.05;;;;;;;;;;4996494;28;20140;-76
2022/11/25 06:50:24;;;;;;;92.63;50.00;;;;;;;;;;4996934;28;20174;-75
2022/11/25 06:52:50;;;;;;;84.63;48.40;;;;;;;;;;4996649;28;20563;-72
2022/11/25 06:55:16;;;;;;;81.55;45.95;;;;;;;;;;4996580;28;20476;-76
2022/11/25 06:57:42;;;;;;;97.10;48.65;;;;;;;;;;4997139;28;20045;-74
2022/11/25 07:00:09;;;;;;;91.57;53.05;;;;;;;;;;4996610;28;20029;-76
2022/11/25 07:02:35;;;;;;;98.93;56.25;;;;;;;;;;4996391;28;20057;-75
2022/11/25 07:05:01;;;;;;;137.88;82.50;;;;;;;;;;4996592;28;20053;-77
2022/11/25 07:07:27;;;;;;;169.40;102.47;;;;;;;;;;4996384;28;20473;-76
2022/11/25 07:09:53;;;;;;;138.00;85.38;;;;;;;;;;4996386;28;20436;-77
2022/11/25 07:12:19;;;;;;;121.80;75.25;;;;;;;;;;4996604;28;20034;-78
2022/11/25 07:14:45;;;;;;;105.35;63.55;;;;;;;;;;4996217;28;20361;-75
2022/11/25 07:17:11;;;;;;;91.65;56.30;;;;;;;;;;4996288;28;20132;-76
2022/11/25 07:19:37;;;;;;;79.53;52.50;;;;;;;;;;4996234;28;20025;-76
2022/11/25 07:22:03;;;;;;;97.53;54.25;;;;;;;;;;4996366;28;20108;-76
2022/11/25 07:24:29;;;;;;;92.00;51.67;;;;;;;;;;4978547;28;20396;-77
2022/11/25 07:26:55;;;;;;;79.05;49.30;;;;;;;;;;4995905;28;20026;-76
2022/11/25 07:29:21;;;;;;;83.35;52.08;;;;;;;;;;4996195;28;20105;-77
2022/11/25 07:31:47;;;;;;;72.28;46.38;;;;;;;;;;4995975;28;20418;-77
2022/11/25 07:34:16;;;;;;;56.17;33.40;;;;;;;;;;4996055;28;20020;-76
2022/11/25 07:36:42;;;;;;;44.70;28.35;;;;;;;;;;4995988;28;20362;-75
2022/11/25 07:39:11;;;;;;;42.28;26.13;;;;;;;;;;4996017;28;20392;-78
2022/11/25 07:41:38;;;;;;;42.85;26.83;;;;;;;;;;4995566;28;20106;-76
2022/11/25 07:44:05;;;;;;;37.25;24.40;;;;;;;;;;4996221;28;20357;-78
2022/11/25 07:46:36;;;;;;;43.08;29.90;;;;;;;;;;4978279;28;20034;-77
2022/11/25 07:49:05;;;;;;;49.60;30.23;;;;;;;;;;4995868;28;20076;-77
2022/11/25 07:51:32;;;;;;;40.47;27.20;;;;;;;;;;4995787;28;20039;-77
2022/11/25 07:53:59;;;;;;;57.30;38.42;;;;;;;;;;4995543;28;20018;-77
2022/11/25 07:56:26;;;;;;;37.60;26.80;;;;;;;;;;4995612;28;20072;-77
2022/11/25 07:58:52;;;;;;;35.55;23.77;;;;;;;;;;4995085;28;20030;-76
2022/11/25 08:01:19;;;;;;;38.72;26.02;;;;;;;;;;4995594;28;20153;-79
2022/11/25 08:03:46;;;;;;;39.53;25.15;;;;;;;;;;4995233;28;20060;-77
2022/11/25 08:06:13;;;;;;;34.95;23.05;;;;;;;;;;4995315;28;20105;-78
2022/11/25 08:08:40;;;;;;;25.40;16.13;;;;;;;;;;4995273;28;20092;-77
2022/11/25 08:11:16;;;;;;;31.45;19.42;;;;;;;;;;4995196;28;20027;-77
2022/11/25 08:13:43;;;;;;;28.83;18.80;;;;;;;;;;4995572;28;20034;-77
2022/11/25 08:16:10;;;;;;;27.98;18.67;;;;;;;;;;4994752;28;20026;-76
2022/11/25 08:18:36;;;;;;;26.55;17.75;;;;;;;;;;4995004;28;20472;-79
2022/11/25 08:21:03;;;;;;;17.02;11.85;;;;;;;;;;4995056;28;20106;-79
2022/11/25 08:23:30;;;;;;;24.00;15.65;;;;;;;;;;4994890;28;20018;-79
2022/11/25 08:25:56;;;;;;;22.33;12.55;;;;;;;;;;4995053;28;20022;-77
2022/11/25 08:28:23;;;;;;;17.50;12.15;;;;;;;;;;4995015;28;20096;-79
2022/11/25 08:30:49;;;;;;;21.75;11.20;;;;;;;;;;4994946;28;20429;-77
2022/11/25 08:33:15;;;;;;;19.55;12.00;;;;;;;;;;4994767;28;20038;-74
2022/11/25 08:35:41;;;;;;;20.17;11.93;;;;;;;;;;4994824;28;20057;-76
2022/11/25 08:38:08;;;;;;;21.23;10.98;;;;;;;;;;4994928;28;20198;-79
2022/11/25 08:40:35;;;;;;;18.55;11.85;;;;;;;;;;4994812;28;20026;-76
2022/11/25 08:43:02;;;;;;;17.17;12.00;;;;;;;;;;4994919;28;20026;-77
2022/11/25 08:45:28;;;;;;;14.77;8.77;;;;;;;;;;4995046;28;20022;-77
2022/11/25 08:47:55;;;;;;;16.13;9.65;;;;;;;;;;4994596;28;20081;-75
2022/11/25 08:50:23;;;;;;;21.15;12.05;;;;;;;;;;4994512;28;20033;-79
2022/11/25 08:52:49;;;;;;;21.95;12.57;;;;;;;;;;4994541;28;20109;-78
2022/11/25 08:55:15;;;;;;;20.95;12.43;;;;;;;;;;4994344;28;20029;-79
2022/11/25 08:57:41;;;;;;;15.25;9.23;;;;;;;;;;4994490;28;20018;-77
2022/11/25 09:00:08;;;;;;;18.23;10.85;;;;;;;;;;4994548;28;20519;-75
2022/11/25 09:02:34;;;;;;;20.90;11.07;;;;;;;;;;4994532;28;20054;-77
2022/11/25 09:05:00;;;;;;;17.95;11.52;;;;;;;;;;4994545;28;20476;-79
2022/11/25 09:07:26;;;;;;;25.83;15.68;;;;;;;;;;4994184;28;20029;-74
2022/11/25 09:09:52;;;;;;;12.65;9.98;;;;;;;;;;4993263;28;20084;-77
2022/11/25 09:12:18;;;;;;;8.57;6.35;;;;;;;;;;4976551;28;20493;-78
2022/11/25 09:14:44;;;;;;;18.63;9.68;;;;;;;;;;4993872;28;20109;-79
2022/11/25 09:17:11;;;;;;;8.90;6.55;;;;;;;;;;4994324;28;20046;-79
2022/11/25 09:19:38;;;;;;;17.35;13.02;;;;;;;;;;4993873;28;20081;-77
2022/11/25 09:22:04;;;;;;;20.30;12.43;;;;;;;;;;4993915;28;20543;-75
2022/11/25 09:24:30;;;;;;;15.77;10.65;;;;;;;;;;4993896;28;20026;-76
2022/11/25 09:26:56;;;;;;;15.45;9.40;;;;;;;;;;4993703;28;20022;-79
2022/11/25 09:29:22;;;;;;;20.30;9.50;;;;;;;;;;4993924;28;20018;-77
2022/11/25 09:31:49;;;;;;;11.60;7.72;;;;;;;;;;4993508;28;20539;-77
2022/11/25 09:34:15;;;;;;;16.52;10.75;;;;;;;;;;4993732;28;20034;-77
2022/11/25 09:36:41;;;;;;;12.63;7.78;;;;;;;;;;4993521;28;20030;-78
2022/11/25 09:39:07;;;;;;;14.43;5.65;;;;;;;;;;4993684;28;20030;-78
2022/11/25 09:47:23;;;;;;;12.73;7.93;;;;;;;;;;4993719;28;20535;-79
2022/11/25 09:49:59;;;;;;;32.95;10.73;;;;;;;;;;4993386;28;20022;-77
2022/11/25 09:52:43;;;;;;;14.43;9.02;;;;;;;;;;4993092;28;20073;-75
2022/11/25 09:55:17;;;;;;;12.18;7.50;;;;;;;;;;4993357;28;20018;-78
2022/11/25 09:58:02;;;;;;;12.63;7.55;;;;;;;;;;4993590;28;20030;-78
2022/11/25 10:00:48;;;;;;;15.23;9.07;;;;;;;;;;4993546;28;20029;-78
2022/11/25 10:03:14;;;;;;;14.60;9.52;;;;;;;;;;4993205;28;20026;-79
2022/11/25 10:05:59;;;;;;;19.30;6.03;;;;;;;;;;4993483;28;20378;-78
2022/11/25 10:08:27;;;;;;;21.75;12.52;;;;;;;;;;4993344;28;20022;-79
2022/11/25 10:11:07;;;;;;;14.50;7.90;;;;;;;;;;4993254;28;20404;-79
2022/11/25 10:13:51;;;;;;;14.05;8.57;;;;;;;;;;4993440;28;20045;-79
2022/11/25 10:16:23;;;;;;;13.88;9.40;;;;;;;;;;4993196;28;20453;-80
2022/11/25 10:18:55;;;;;;;10.60;7.15;;;;;;;;;;4993224;28;20041;-78
2022/11/25 10:21:21;;;;;;;12.30;10.25;;;;;;;;;;4981985;28;20050;-77
2022/11/25 10:23:47;;;;;;;12.70;9.70;;;;;;;;;;4997102;28;20026;-79
2022/11/25 10:26:19;;;;;;;10.85;8.07;;;;;;;;;;4997211;28;20019;-76
2022/11/25 10:28:50;;;;;;;18.33;7.20;;;;;;;;;;4997118;28;20030;-77
2022/11/25 10:31:18;;;;;;;15.23;8.95;;;;;;;;;;4997150;28;20022;-78
2022/11/25 10:33:46;;;;;;;17.80;10.35;;;;;;;;;;4983464;28;20392;-76
2022/11/25 10:36:12;;;;;;;14.25;10.27;;;;;;;;;;4996821;28;20018;-76
2022/11/25 10:38:38;;;;;;;68.18;43.25;;;;;;;;;;4979266;28;20049;-77
2022/11/25 10:41:05;;;;;;;20.95;12.48;;;;;;;;;;4996694;28;20151;-76
2022/11/25 10:43:32;;;;;;;21.60;15.40;;;;;;;;;;4996708;28;20176;-75
2022/11/25 10:46:07;;;;;;;25.70;12.43;;;;;;;;;;4996958;28;20050;-76
2022/11/25 10:48:52;;;;;;;19.88;12.10;;;;;;;;;;4996397;28;20101;-75
2022/11/25 10:51:29;;;;;;;17.65;9.15;;;;;;;;;;4996748;28;20049;-78
2022/11/25 10:54:08;;;;;;;18.27;11.25;;;;;;;;;;4979995;28;20043;-76
2022/11/25 10:56:44;;;;;;;10.55;7.90;;;;;;;;;;4979103;28;20125;-77
2022/11/25 10:59:33;;;;;;;16.25;9.55;;;;;;;;;;4996354;28;20018;-77
2022/11/25 11:02:14;;;;;;;13.35;8.63;;;;;;;;;;4936411;29;20040;-79
2022/11/25 11:04:54;;;;;;;13.98;8.25;;;;;;;;;;4936567;29;20036;-78
2022/11/25 11:07:21;;;;;;;15.15;8.40;;;;;;;;;;4936230;29;20127;-79
2022/11/25 11:09:48;;;;;;;13.77;10.80;;;;;;;;;;4936361;29;20104;-78
2022/11/25 11:12:22;;;;;;;10.98;7.40;;;;;;;;;;4920345;29;20038;-78
2022/11/25 11:14:48;;;;;;;16.15;10.60;;;;;;;;;;4936154;29;20032;-79
2022/11/25 11:17:33;;;;;;;12.77;7.38;;;;;;;;;;4936006;29;20087;-75
2022/11/25 11:20:23;;;;;;;15.15;9.32;;;;;;;;;;4936303;29;20036;-79
2022/11/25 11:23:04;;;;;;;15.43;10.18;;;;;;;;;;4879465;29;20415;-77
2022/11/25 11:25:34;;;;;;;13.75;8.75;;;;;;;;;;4868461;29;20041;-76
2022/11/25 11:28:01;;;;;;;10.48;7.38;;;;;;;;;;4879247;29;20037;-77
2022/11/25 11:30:31;;;;;;;12.88;7.65;;;;;;;;;;4879453;29;20108;-78
2022/11/25 11:33:02;;;;;;;16.38;8.45;;;;;;;;;;4878458;29;20053;-77
2022/11/25 11:35:48;;;;;;;16.70;10.70;;;;;;;;;;4879586;29;20174;-77
2022/11/25 11:38:34;;;;;;;13.52;7.03;;;;;;;;;;4886460;29;20609;-76
2022/11/25 11:41:19;;;;;;;11.15;6.60;;;;;;;;;;4916669;29;20040;-77
2022/11/25 11:43:55;;;;;;;12.63;6.90;;;;;;;;;;4916824;29;20514;-77
2022/11/25 11:46:32;;;;;;;21.33;16.33;;;;;;;;;;4916877;29;20119;-79
2022/11/25 11:49:16;;;;;;;16.65;12.82;;;;;;;;;;4900601;29;20020;-77
2022/11/25 11:51:48;;;;;;;18.52;13.60;;;;;;;;;;4916502;29;20095;-80
2022/11/25 11:54:25;;;;;;;29.73;22.30;;;;;;;;;;4916767;29;20044;-80
2022/11/25 11:57:01;;;;;;;12.45;7.40;;;;;;;;;;4916582;29;20431;-80
2022/11/25 11:59:45;;;;;;;10.73;7.22;;;;;;;;;;4937920;28;20062;-74
2022/11/25 12:02:14;;;;;;;13.07;8.25;;;;;;;;;;4991749;28;20062;-78
2022/11/25 12:04:43;;;;;;;11.88;7.65;;;;;;;;;;4995270;28;20077;-80
2022/11/25 12:07:14;;;;;;;12.90;7.97;;;;;;;;;;4995289;28;20464;-79
2022/11/25 12:09:50;;;;;;;12.25;7.38;;;;;;;;;;4978089;28;20177;-79
2022/11/25 12:12:18;;;;;;;9.30;7.43;;;;;;;;;;4995253;28;20034;-77
2022/11/25 12:14:51;;;;;;;11.48;7.50;;;;;;;;;;4995237;28;20030;-77
2022/11/25 12:17:23;;;;;;;15.45;10.00;;;;;;;;;;4994960;28;20523;-77
2022/11/25 12:19:49;;;;;;;21.23;10.65;;;;;;;;;;4995034;28;20018;-74
2022/11/25 12:22:24;;;;;;;17.30;9.63;;;;;;;;;;4995295;28;20153;-77
2022/11/25 12:24:53;;;;;;;13.43;9.70;;;;;;;;;;4981234;28;20113;-78
2022/11/25 12:27:25;;;;;;;10.60;5.97;;;;;;;;;;4994744;28;20030;-78
2022/11/25 12:29:51;;;;;;;15.32;7.93;;;;;;;;;;4994885;28;20116;-80
2022/11/25 12:32:29;;;;;;;10.55;7.70;;;;;;;;;;4994913;28;20099;-74
2022/11/25 12:35:01;;;;;;;15.65;9.00;;;;;;;;;;4994885;28;20034;-75
2022/11/25 12:37:34;;;;;;;17.27;10.70;;;;;;;;;;4994888;28;20033;-75
2022/11/25 12:40:04;;;;;;;12.23;7.28;;;;;;;;;;4994532;28;20019;-79
2022/11/25 12:42:32;;;;;;;12.40;7.53;;;;;;;;;;4994875;28;20388;-80
2022/11/25 12:45:21;;;;;;;10.10;6.90;;;;;;;;;;4993504;28;20062;-79
2022/11/25 12:47:47;;;;;;;18.65;10.23;;;;;;;;;;4934546;29;20035;-79
2022/11/25 12:50:15;;;;;;;29.10;19.42;;;;;;;;;;4934421;29;20547;-77
2022/11/25 12:52:53;;;;;;;18.70;8.65;;;;;;;;;;4934363;29;20048;-81
2022/11/25 12:55:26;;;;;;;20.65;11.73;;;;;;;;;;4934324;29;20094;-80
2022/11/25 12:57:52;;;;;;;19.48;11.93;;;;;;;;;;4934431;29;20031;-80
2022/11/25 13:00:20;;;;;;;14.77;7.82;;;;;;;;;;4934403;29;20024;-74
2022/11/25 13:02:51;;;;;;;15.57;7.75;;;;;;;;;;4934301;29;20028;-77
2022/11/25 13:05:30;;;;;;;12.98;7.78;;;;;;;;;;4934100;29;20044;-77
2022/11/25 13:08:14;;;;;;;15.43;11.38;;;;;;;;;;4934348;29;20442;-75
2022/11/25 13:10:49;;;;;;;13.02;9.63;;;;;;;;;;4933871;29;20031;-76
2022/11/25 13:13:18;;;;;;;19.58;11.27;;;;;;;;;;4934375;29;20047;-74
2022/11/25 13:15:48;;;;;;;23.27;12.00;;;;;;;;;;4933722;29;20028;-78
2022/11/25 13:18:16;;;;;;;21.70;14.15;;;;;;;;;;4933901;29;20060;-78
2022/11/25 13:20:43;;;;;;;19.73;14.85;;;;;;;;;;4933851;29;20032;-80
2022/11/25 13:23:13;;;;;;;22.02;13.65;;;;;;;;;;4934104;29;20035;-80
2022/11/25 13:25:40;;;;;;;19.67;13.30;;;;;;;;;;4978189;28;20034;-78
2022/11/25 13:28:29;;;;;;;25.17;19.90;;;;;;;;;;4993478;28;20031;-75
2022/11/25 13:30:55;;;;;;;34.67;23.95;;;;;;;;;;4895663;29;20044;-79
2022/11/25 13:33:24;;;;;;;35.45;18.70;;;;;;;;;;4895760;29;20056;-80
2022/11/25 13:35:50;;;;;;;26.17;16.10;;;;;;;;;;4895916;29;20035;-79
2022/11/25 13:38:28;;;;;;;24.65;12.55;;;;;;;;;;4895777;29;20467;-77
2022/11/25 13:40:58;;;;;;;28.27;18.98;;;;;;;;;;4895572;29;20030;-73
2022/11/25 13:43:24;;;;;;;15.93;9.95;;;;;;;;;;4895705;29;20036;-77
2022/11/25 13:45:51;;;;;;;14.07;8.93;;;;;;;;;;4895606;29;20353;-77
2022/11/25 13:48:30;;;;;;;16.90;9.98;;;;;;;;;;4895797;29;20048;-77
2022/11/25 13:51:14;;;;;;;18.50;10.90;;;;;;;;;;4895840;29;20024;-78
2022/11/25 13:53:40;;;;;;;17.02;10.10;;;;;;;;;;4895388;29;20044;-75
2022/11/25 13:56:12;;;;;;;17.00;10.20;;;;;;;;;;4895400;29;20559;-77
2022/11/25 13:58:39;;;;;;;15.02;13.40;;;;;;;;;;4895568;29;20092;-76
2022/11/25 14:01:30;;;;;;;19.80;12.95;;;;;;;;;;4895455;29;20084;-77
2022/11/25 14:03:59;;;;;;;21.48;12.80;;;;;;;;;;4893619;29;20041;-72
2022/11/25 14:06:30;;;;;;;16.70;14.02;;;;;;;;;;4895554;29;20033;-76
2022/11/25 14:09:02;;;;;;;16.25;11.50;;;;;;;;;;4986395;28;20046;-76
2022/11/25 14:11:28;;;;;;;29.67;18.15;;;;;;;;;;4993127;28;20089;-78
2022/11/25 14:13:54;;;;;;;28.90;17.80;;;;;;;;;;4993006;28;20481;-74
2022/11/25 14:16:39;;;;;;;33.83;21.60;;;;;;;;;;4992868;28;20046;-76
2022/11/25 14:19:19;;;;;;;31.40;16.80;;;;;;;;;;4993185;28;20413;-77
2022/11/25 14:21:54;;;;;;;17.10;12.13;;;;;;;;;;4992945;28;20105;-74
2022/11/25 14:24:36;;;;;;;21.70;13.65;;;;;;;;;;4993236;28;20031;-75
2022/11/25 14:27:04;;;;;;;26.65;12.60;;;;;;;;;;4980039;28;20018;-77
2022/11/25 14:29:36;;;;;;;29.95;16.70;;;;;;;;;;4993211;28;20050;-79
2022/11/25 14:32:27;;;;;;;28.20;20.48;;;;;;;;;;4993048;28;20464;-78
2022/11/25 14:35:08;;;;;;;29.80;18.73;;;;;;;;;;4989793;28;20042;-78
2022/11/25 14:37:57;;;;;;;29.77;19.15;;;;;;;;;;4989853;28;20026;-71
2022/11/25 14:40:29;;;;;;;53.65;30.30;;;;;;;;;;4913956;29;20039;-75
2022/11/25 14:43:02;;;;;;;70.15;37.50;;;;;;;;;;4896975;29;20407;-77